Marcell, Minnesota
Current Conditions -  °F | °C
As of 7:33 AM on Tuesday 21 Oct 2014 (Local Time) from KFOZ Reporting Station
Clear Clear  
Wind Chill: 30°   Ceiling: Unl
Heat Index: 34°   Visibility: 10mi
Dew Point: 32°   Wind: 5mph
Humidity: 93%   Direction: 120°ESE
Pressure: 30.17"   Gusts: NA
Location:  47.59°N, 93.69°W
Report Text: KFOZ 211233Z AUTO 12004KT 10SM CLR 01/00 A3017 RMK AO2
Loading
Personal Weather Stations






























Interactive Weather Map
Tropical Storm Tracking
New forecast layout! Learn more

10-Day Weather Forecast

Advertisements
Track Severe Weather on mobile